South Alabama Regional At Bill Benton Field Airport
K79J : now visible

Airfield :











YOU CAN JOIN US ON...

 
LOGIN :

Register | Disclaimer

   EN    FR    IT 

 









Legend :    VFR   Marginal VFR   IFR   Intensive IFR   Very Intensive IFR
Visi :
Ceiling :
>= 8 km
>= 3000ft
5 to 8 km
1000 to 3000 ft
1500m to 5 km
500 to 1000 ft
800 to 1500m
200 to 500 ft
< 800m
< 200 ft
Symbols :   Thunderstorms  Fog  Heavy snow  Heavy precipitations  Wind > 20 kt






- Airport Elevation : 310 ft


K79J - South Alabama Regional At Bill Benton Field

CURRENT METAR :
  • 121810Z AUTO 32005KT 10SM BKN024 BKN030 BKN046 27/18 A3006 RMK AO2 T02720183

EXPIRED METARs :
  • 121756Z AUTO 03005KT 10SM FEW021 SCT026 BKN038 27/19 A3006 RMK AO2 SLP174 60030 T02720189 10272 20206 58005
  • 121752Z AUTO 36003KT 10SM SCT021 SCT029 BKN045 27/19 A3006 RMK AO2
  • 121737Z AUTO 01007KT 10SM FEW020 BKN027 OVC049 26/19 A3006 RMK AO2 T02610189
  • 121716Z AUTO VRB04KT 10SM FEW020 BKN031 OVC049 27/19 A3007 RMK AO2 T02670189
  • 121656Z AUTO 30006KT 10SM SCT018 BKN024 OVC045 26/19 A3008 RMK AO2 SLP180 T02610189
  • 121646Z AUTO 30005KT 10SM SCT018 BKN026 26/19 A3007 RMK AO2 T02560189
  • 121556Z AUTO 00000KT 10SM FEW006 FEW100 24/19 A3007 RMK AO2 SLP179 T02440189
  • 121527Z AUTO 33006KT 10SM OVC006 24/19 A3007 RMK AO2 T02390194

TAF N/A



MET'MAP, your aeronautical weather chart ! - Copyright ORBIFLY December 2007 - Disclaimer

ORBIFLY MET'MAP TEAM :

Programming & Development : Alexandra Zaïnal
Concept & original design : Baudouin d'Aumeries
Assistance for programming : Marc-Olivier Méhu
Technical & hardware support : Manuel Goepfert

Contact : metmap@orbifly.com




SOURCES & CREDITS :

   NOAA       Earth
Advisory